sensor_id;sensor_type;location;lat;lon;timestamp;temperature;humidity
19385;DHT22;9828;54.122;17.974;2023-07-09T00:04:45;17.00;99.90
19385;DHT22;9828;54.122;17.974;2023-07-09T00:10:18;16.90;99.90
19385;DHT22;9828;54.122;17.974;2023-07-09T00:15:39;17.00;99.90
19385;DHT22;9828;54.122;17.974;2023-07-09T00:21:02;17.10;99.90
19385;DHT22;9828;54.122;17.974;2023-07-09T00:26:24;16.90;99.90
19385;DHT22;9828;54.122;17.974;2023-07-09T00:31:45;16.90;99.90
19385;DHT22;9828;54.122;17.974;2023-07-09T00:37:11;16.80;99.90
19385;DHT22;9828;54.122;17.974;2023-07-09T00:42:33;16.80;99.90
19385;DHT22;9828;54.122;17.974;2023-07-09T00:48:06;16.80;1.00
19385;DHT22;9828;54.122;17.974;2023-07-09T00:53:34;16.70;1.00
19385;DHT22;9828;54.122;17.974;2023-07-09T00:58:56;16.50;99.90
19385;DHT22;9828;54.122;17.974;2023-07-09T01:04:21;16.40;1.00
19385;DHT22;9828;54.122;17.974;2023-07-09T01:15:07;16.10;1.00
19385;DHT22;9828;54.122;17.974;2023-07-09T01:20:31;16.00;1.00
19385;DHT22;9828;54.122;17.974;2023-07-09T01:25:53;15.90;1.00
19385;DHT22;9828;54.122;17.974;2023-07-09T01:31:16;15.90;1.00
19385;DHT22;9828;54.122;17.974;2023-07-09T01:36:40;15.90;1.00
19385;DHT22;9828;54.122;17.974;2023-07-09T01:42:01;15.80;1.00
19385;DHT22;9828;54.122;17.974;2023-07-09T01:47:23;15.80;1.00
19385;DHT22;9828;54.122;17.974;2023-07-09T01:52:48;15.80;1.00
19385;DHT22;9828;54.122;17.974;2023-07-09T01:58:10;15.80;1.00
19385;DHT22;9828;54.122;17.974;2023-07-09T02:03:32;15.90;1.00
19385;DHT22;9828;54.122;17.974;2023-07-09T02:08:53;15.90;1.00
19385;DHT22;9828;54.122;17.974;2023-07-09T02:14:15;15.80;1.00
19385;DHT22;9828;54.122;17.974;2023-07-09T02:19:37;15.80;1.00
19385;DHT22;9828;54.122;17.974;2023-07-09T02:24:58;15.80;1.00
19385;DHT22;9828;54.122;17.974;2023-07-09T02:30:20;15.80;1.00
19385;DHT22;9828;54.122;17.974;2023-07-09T02:35:43;15.70;99.90
19385;DHT22;9828;54.122;17.974;2023-07-09T02:41:05;15.70;99.90
19385;DHT22;9828;54.122;17.974;2023-07-09T02:46:26;15.70;1.00
19385;DHT22;9828;54.122;17.974;2023-07-09T02:51:47;15.60;1.00
19385;DHT22;9828;54.122;17.974;2023-07-09T02:57:09;15.50;1.00
19385;DHT22;9828;54.122;17.974;2023-07-09T03:02:30;15.60;1.00
19385;DHT22;9828;54.122;17.974;2023-07-09T03:07:51;15.40;1.00
19385;DHT22;9828;54.122;17.974;2023-07-09T03:13:14;15.60;1.00
19385;DHT22;9828;54.122;17.974;2023-07-09T03:18:35;15.50;1.00
19385;DHT22;9828;54.122;17.974;2023-07-09T03:23:57;15.60;1.00
19385;DHT22;9828;54.122;17.974;2023-07-09T03:29:19;15.60;1.00
19385;DHT22;9828;54.122;17.974;2023-07-09T03:34:43;15.70;1.00
19385;DHT22;9828;54.122;17.974;2023-07-09T03:40:05;15.60;1.00
19385;DHT22;9828;54.122;17.974;2023-07-09T03:45:27;15.60;1.00
19385;DHT22;9828;54.122;17.974;2023-07-09T03:50:49;15.40;1.00
19385;DHT22;9828;54.122;17.974;2023-07-09T03:56:10;15.30;1.00
19385;DHT22;9828;54.122;17.974;2023-07-09T04:01:32;15.30;1.00
19385;DHT22;9828;54.122;17.974;2023-07-09T04:06:53;15.30;1.00
19385;DHT22;9828;54.122;17.974;2023-07-09T04:12:16;15.40;1.00
19385;DHT22;9828;54.122;17.974;2023-07-09T04:17:37;15.50;1.00
19385;DHT22;9828;54.122;17.974;2023-07-09T04:22:58;15.70;1.00
19385;DHT22;9828;54.122;17.974;2023-07-09T04:28:20;15.80;30.70
19385;DHT22;9828;54.122;17.974;2023-07-09T04:33:41;16.10;99.90
19385;DHT22;9828;54.122;17.974;2023-07-09T04:39:04;16.30;99.90
19385;DHT22;9828;54.122;17.974;2023-07-09T04:44:26;16.50;99.90
19385;DHT22;9828;54.122;17.974;2023-07-09T04:49:47;16.70;99.90
19385;DHT22;9828;54.122;17.974;2023-07-09T04:55:09;16.90;43.80
19385;DHT22;9828;54.122;17.974;2023-07-09T05:00:30;17.00;1.00
19385;DHT22;9828;54.122;17.974;2023-07-09T05:05:53;17.20;1.00
19385;DHT22;9828;54.122;17.974;2023-07-09T05:11:15;17.30;1.00
19385;DHT22;9828;54.122;17.974;2023-07-09T05:16:37;17.50;99.90
19385;DHT22;9828;54.122;17.974;2023-07-09T05:21:59;17.60;99.90
19385;DHT22;9828;54.122;17.974;2023-07-09T05:27:20;17.70;58.50
19385;DHT22;9828;54.122;17.974;2023-07-09T05:32:41;17.90;76.50
19385;DHT22;9828;54.122;17.974;2023-07-09T05:38:03;17.90;28.00
19385;DHT22;9828;54.122;17.974;2023-07-09T05:43:24;18.10;1.00
19385;DHT22;9828;54.122;17.974;2023-07-09T05:48:45;18.40;1.00
19385;DHT22;9828;54.122;17.974;2023-07-09T05:54:06;18.50;1.00
19385;DHT22;9828;54.122;17.974;2023-07-09T05:59:28;18.70;1.00
19385;DHT22;9828;54.122;17.974;2023-07-09T06:04:49;19.00;1.00
19385;DHT22;9828;54.122;17.974;2023-07-09T06:10:11;19.20;1.00
19385;DHT22;9828;54.122;17.974;2023-07-09T06:15:33;19.30;1.00
19385;DHT22;9828;54.122;17.974;2023-07-09T06:20:56;19.60;1.00
19385;DHT22;9828;54.122;17.974;2023-07-09T06:26:18;19.70;1.00
19385;DHT22;9828;54.122;17.974;2023-07-09T06:31:40;20.00;1.00
19385;DHT22;9828;54.122;17.974;2023-07-09T06:37:04;20.30;1.00
19385;DHT22;9828;54.122;17.974;2023-07-09T06:42:26;20.60;99.90
19385;DHT22;9828;54.122;17.974;2023-07-09T06:48:00;21.20;99.90
19385;DHT22;9828;54.122;17.974;2023-07-09T06:53:22;21.70;99.90
19385;DHT22;9828;54.122;17.974;2023-07-09T07:04:08;23.30;1.00
19385;DHT22;9828;54.122;17.974;2023-07-09T07:09:33;24.60;99.90
19385;DHT22;9828;54.122;17.974;2023-07-09T07:14:55;24.50;99.90
19385;DHT22;9828;54.122;17.974;2023-07-09T07:25:38;25.50;99.90
19385;DHT22;9828;54.122;17.974;2023-07-09T07:31:04;26.00;99.90
19385;DHT22;9828;54.122;17.974;2023-07-09T07:41:50;26.60;99.90
19385;DHT22;9828;54.122;17.974;2023-07-09T07:47:12;26.70;99.90
19385;DHT22;9828;54.122;17.974;2023-07-09T07:52:34;27.20;99.90
19385;DHT22;9828;54.122;17.974;2023-07-09T07:57:58;28.00;99.90
19385;DHT22;9828;54.122;17.974;2023-07-09T08:03:20;28.10;99.90
19385;DHT22;9828;54.122;17.974;2023-07-09T08:14:03;28.50;99.90
19385;DHT22;9828;54.122;17.974;2023-07-09T08:19:25;28.80;99.90
19385;DHT22;9828;54.122;17.974;2023-07-09T08:24:46;29.00;99.90
19385;DHT22;9828;54.122;17.974;2023-07-09T08:30:08;29.40;99.90
19385;DHT22;9828;54.122;17.974;2023-07-09T08:35:30;29.80;99.90
19385;DHT22;9828;54.122;17.974;2023-07-09T08:51:57;30.40;99.90
19385;DHT22;9828;54.122;17.974;2023-07-09T08:57:26;30.60;99.90
19385;DHT22;9828;54.122;17.974;2023-07-09T09:13:44;31.00;99.90
19385;DHT22;9828;54.122;17.974;2023-07-09T09:19:18;31.40;99.90
19385;DHT22;9828;54.122;17.974;2023-07-09T09:30:20;31.60;99.90
19385;DHT22;9828;54.122;17.974;2023-07-09T09:35:44;31.90;99.90
19385;DHT22;9828;54.122;17.974;2023-07-09T09:41:14;32.10;99.90
19385;DHT22;9828;54.122;17.974;2023-07-09T09:46:36;32.00;99.90
19385;DHT22;9828;54.122;17.974;2023-07-09T09:52:02;31.80;99.90
19385;DHT22;9828;54.122;17.974;2023-07-09T09:57:24;32.00;99.90
19385;DHT22;9828;54.122;17.974;2023-07-09T10:02:47;31.80;99.90
19385;DHT22;9828;54.122;17.974;2023-07-09T10:08:29;32.00;99.90
19385;DHT22;9828;54.122;17.974;2023-07-09T10:13:57;32.00;99.90
19385;DHT22;9828;54.122;17.974;2023-07-09T10:19:39;32.00;99.90
19385;DHT22;9828;54.122;17.974;2023-07-09T10:42:48;32.30;99.90
19385;DHT22;9828;54.122;17.974;2023-07-09T10:48:18;32.00;99.90
19385;DHT22;9828;54.122;17.974;2023-07-09T10:53:45;32.00;99.90
19385;DHT22;9828;54.122;17.974;2023-07-09T10:59:24;32.20;99.90
19385;DHT22;9828;54.122;17.974;2023-07-09T11:04:57;32.50;99.90
19385;DHT22;9828;54.122;17.974;2023-07-09T11:10:27;32.40;99.90
19385;DHT22;9828;54.122;17.974;2023-07-09T11:15:51;32.60;99.90
19385;DHT22;9828;54.122;17.974;2023-07-09T11:21:16;32.60;99.90
19385;DHT22;9828;54.122;17.974;2023-07-09T11:26:47;32.70;99.90
19385;DHT22;9828;54.122;17.974;2023-07-09T11:32:09;32.60;99.90
19385;DHT22;9828;54.122;17.974;2023-07-09T11:37:31;32.90;99.90
19385;DHT22;9828;54.122;17.974;2023-07-09T11:42:55;32.80;99.90
19385;DHT22;9828;54.122;17.974;2023-07-09T11:48:27;32.40;99.90
19385;DHT22;9828;54.122;17.974;2023-07-09T11:53:53;32.40;99.90
19385;DHT22;9828;54.122;17.974;2023-07-09T11:59:14;32.20;99.90
19385;DHT22;9828;54.122;17.974;2023-07-09T12:04:36;32.20;99.90
19385;DHT22;9828;54.122;17.974;2023-07-09T12:09:58;32.20;99.90
19385;DHT22;9828;54.122;17.974;2023-07-09T12:15:26;32.20;99.90
19385;DHT22;9828;54.122;17.974;2023-07-09T12:20:51;31.90;99.90
19385;DHT22;9828;54.122;17.974;2023-07-09T12:26:15;31.50;99.90
19385;DHT22;9828;54.122;17.974;2023-07-09T12:31:39;31.60;99.90
19385;DHT22;9828;54.122;17.974;2023-07-09T12:37:00;31.00;99.90
19385;DHT22;9828;54.122;17.974;2023-07-09T12:42:30;30.70;99.90
19385;DHT22;9828;54.122;17.974;2023-07-09T12:47:52;31.00;99.90
19385;DHT22;9828;54.122;17.974;2023-07-09T12:53:19;31.40;99.90
19385;DHT22;9828;54.122;17.974;2023-07-09T12:58:43;31.40;99.90
19385;DHT22;9828;54.122;17.974;2023-07-09T13:04:07;31.00;99.90
19385;DHT22;9828;54.122;17.974;2023-07-09T13:09:30;30.70;99.90
19385;DHT22;9828;54.122;17.974;2023-07-09T13:14:55;30.70;99.90
19385;DHT22;9828;54.122;17.974;2023-07-09T13:20:18;30.60;99.90
19385;DHT22;9828;54.122;17.974;2023-07-09T13:25:40;30.50;99.90
19385;DHT22;9828;54.122;17.974;2023-07-09T13:31:17;30.60;99.90
19385;DHT22;9828;54.122;17.974;2023-07-09T13:36:39;30.80;99.90
19385;DHT22;9828;54.122;17.974;2023-07-09T13:42:01;30.90;99.90
19385;DHT22;9828;54.122;17.974;2023-07-09T13:47:22;30.70;99.90
19385;DHT22;9828;54.122;17.974;2023-07-09T13:52:45;30.60;99.90
19385;DHT22;9828;54.122;17.974;2023-07-09T13:58:11;30.60;99.90
19385;DHT22;9828;54.122;17.974;2023-07-09T14:03:35;30.20;99.90
19385;DHT22;9828;54.122;17.974;2023-07-09T14:08:56;30.30;99.90
19385;DHT22;9828;54.122;17.974;2023-07-09T14:14:23;30.30;99.90
19385;DHT22;9828;54.122;17.974;2023-07-09T14:19:45;30.40;99.90
19385;DHT22;9828;54.122;17.974;2023-07-09T14:25:06;30.50;99.90
19385;DHT22;9828;54.122;17.974;2023-07-09T14:30:28;30.40;99.90
19385;DHT22;9828;54.122;17.974;2023-07-09T14:35:50;30.20;99.90
19385;DHT22;9828;54.122;17.974;2023-07-09T14:41:22;30.30;99.90
19385;DHT22;9828;54.122;17.974;2023-07-09T14:46:44;30.20;99.90
19385;DHT22;9828;54.122;17.974;2023-07-09T14:52:12;30.10;99.90
19385;DHT22;9828;54.122;17.974;2023-07-09T14:57:35;30.00;99.90
19385;DHT22;9828;54.122;17.974;2023-07-09T15:02:57;29.80;99.90
19385;DHT22;9828;54.122;17.974;2023-07-09T15:08:21;29.30;99.90
19385;DHT22;9828;54.122;17.974;2023-07-09T15:13:45;29.10;99.90
19385;DHT22;9828;54.122;17.974;2023-07-09T15:19:14;28.90;99.90
19385;DHT22;9828;54.122;17.974;2023-07-09T15:24:36;28.70;99.90
19385;DHT22;9828;54.122;17.974;2023-07-09T15:29:58;28.50;99.90
19385;DHT22;9828;54.122;17.974;2023-07-09T15:35:19;28.60;99.90
19385;DHT22;9828;54.122;17.974;2023-07-09T15:40:41;28.60;99.90
19385;DHT22;9828;54.122;17.974;2023-07-09T15:46:03;28.60;99.90
19385;DHT22;9828;54.122;17.974;2023-07-09T15:51:25;28.50;99.90
19385;DHT22;9828;54.122;17.974;2023-07-09T15:56:48;28.30;99.90
19385;DHT22;9828;54.122;17.974;2023-07-09T16:02:12;28.20;99.90
19385;DHT22;9828;54.122;17.974;2023-07-09T16:07:35;28.00;99.90
19385;DHT22;9828;54.122;17.974;2023-07-09T16:12:57;28.10;99.90
19385;DHT22;9828;54.122;17.974;2023-07-09T16:18:19;28.00;99.90
19385;DHT22;9828;54.122;17.974;2023-07-09T16:23:41;28.00;99.90
19385;DHT22;9828;54.122;17.974;2023-07-09T16:29:08;28.10;99.90
19385;DHT22;9828;54.122;17.974;2023-07-09T16:34:34;28.00;99.90
19385;DHT22;9828;54.122;17.974;2023-07-09T16:39:55;27.80;99.90
19385;DHT22;9828;54.122;17.974;2023-07-09T16:45:19;27.80;99.90
19385;DHT22;9828;54.122;17.974;2023-07-09T16:50:41;27.60;99.90
19385;DHT22;9828;54.122;17.974;2023-07-09T16:56:03;27.40;99.90
19385;DHT22;9828;54.122;17.974;2023-07-09T17:01:25;27.30;99.90
19385;DHT22;9828;54.122;17.974;2023-07-09T17:06:46;27.30;99.90
19385;DHT22;9828;54.122;17.974;2023-07-09T17:12:10;27.20;99.90
19385;DHT22;9828;54.122;17.974;2023-07-09T17:17:32;27.10;99.90
19385;DHT22;9828;54.122;17.974;2023-07-09T17:22:55;26.90;99.90
19385;DHT22;9828;54.122;17.974;2023-07-09T17:28:22;26.80;99.90
19385;DHT22;9828;54.122;17.974;2023-07-09T17:33:45;26.60;99.90
19385;DHT22;9828;54.122;17.974;2023-07-09T17:39:19;26.50;99.90
19385;DHT22;9828;54.122;17.974;2023-07-09T17:44:41;26.40;99.90
19385;DHT22;9828;54.122;17.974;2023-07-09T17:50:12;26.20;99.90
19385;DHT22;9828;54.122;17.974;2023-07-09T17:55:33;26.10;99.90
19385;DHT22;9828;54.122;17.974;2023-07-09T18:00:59;25.90;99.90
19385;DHT22;9828;54.122;17.974;2023-07-09T18:06:21;25.70;99.90
19385;DHT22;9828;54.122;17.974;2023-07-09T18:11:42;25.60;99.90
19385;DHT22;9828;54.122;17.974;2023-07-09T18:22:34;25.30;99.90
19385;DHT22;9828;54.122;17.974;2023-07-09T18:28:01;25.30;99.90
19385;DHT22;9828;54.122;17.974;2023-07-09T18:33:23;25.10;99.90
19385;DHT22;9828;54.122;17.974;2023-07-09T18:38:45;25.00;99.90
19385;DHT22;9828;54.122;17.974;2023-07-09T18:44:19;24.90;99.90
19385;DHT22;9828;54.122;17.974;2023-07-09T18:49:42;24.70;99.90
19385;DHT22;9828;54.122;17.974;2023-07-09T18:55:15;24.60;99.90
19385;DHT22;9828;54.122;17.974;2023-07-09T19:00:37;24.60;99.90
19385;DHT22;9828;54.122;17.974;2023-07-09T19:05:58;24.50;99.90
19385;DHT22;9828;54.122;17.974;2023-07-09T19:11:21;24.40;99.90
19385;DHT22;9828;54.122;17.974;2023-07-09T19:16:53;24.30;99.90
19385;DHT22;9828;54.122;17.974;2023-07-09T19:22:16;24.20;99.90
19385;DHT22;9828;54.122;17.974;2023-07-09T19:27:40;24.10;99.90
19385;DHT22;9828;54.122;17.974;2023-07-09T19:33:01;24.00;99.90
19385;DHT22;9828;54.122;17.974;2023-07-09T19:38:22;23.90;99.90
19385;DHT22;9828;54.122;17.974;2023-07-09T19:43:44;23.70;99.90
19385;DHT22;9828;54.122;17.974;2023-07-09T19:49:09;23.70;99.90
19385;DHT22;9828;54.122;17.974;2023-07-09T19:54:31;23.60;99.90
19385;DHT22;9828;54.122;17.974;2023-07-09T19:59:52;23.50;99.90
19385;DHT22;9828;54.122;17.974;2023-07-09T20:05:16;23.40;99.90
19385;DHT22;9828;54.122;17.974;2023-07-09T20:10:38;23.20;99.90
19385;DHT22;9828;54.122;17.974;2023-07-09T20:16:00;23.20;99.90
19385;DHT22;9828;54.122;17.974;2023-07-09T20:21:25;23.10;99.90
19385;DHT22;9828;54.122;17.974;2023-07-09T20:26:47;22.90;99.90
19385;DHT22;9828;54.122;17.974;2023-07-09T20:32:18;22.80;99.90
19385;DHT22;9828;54.122;17.974;2023-07-09T20:37:39;22.80;99.90
19385;DHT22;9828;54.122;17.974;2023-07-09T20:43:01;22.80;1.00
19385;DHT22;9828;54.122;17.974;2023-07-09T20:48:22;22.70;1.00
19385;DHT22;9828;54.122;17.974;2023-07-09T20:53:45;22.60;1.00
19385;DHT22;9828;54.122;17.974;2023-07-09T20:59:14;22.60;1.00
19385;DHT22;9828;54.122;17.974;2023-07-09T21:04:38;22.60;1.00
19385;DHT22;9828;54.122;17.974;2023-07-09T21:15:30;22.50;1.00
19385;DHT22;9828;54.122;17.974;2023-07-09T21:20:52;22.50;1.00
19385;DHT22;9828;54.122;17.974;2023-07-09T21:31:36;22.50;1.00
19385;DHT22;9828;54.122;17.974;2023-07-09T21:37:00;22.10;1.00
19385;DHT22;9828;54.122;17.974;2023-07-09T21:42:21;22.10;1.00
19385;DHT22;9828;54.122;17.974;2023-07-09T21:47:43;22.20;1.00
19385;DHT22;9828;54.122;17.974;2023-07-09T21:53:15;22.10;1.00
19385;DHT22;9828;54.122;17.974;2023-07-09T21:58:36;22.00;1.00
19385;DHT22;9828;54.122;17.974;2023-07-09T22:03:58;21.90;1.00
19385;DHT22;9828;54.122;17.974;2023-07-09T22:09:20;21.90;1.00
19385;DHT22;9828;54.122;17.974;2023-07-09T22:14:41;21.80;1.00
19385;DHT22;9828;54.122;17.974;2023-07-09T22:20:03;21.80;1.00
19385;DHT22;9828;54.122;17.974;2023-07-09T22:36:11;21.60;1.00
19385;DHT22;9828;54.122;17.974;2023-07-09T22:41:33;21.40;1.00
19385;DHT22;9828;54.122;17.974;2023-07-09T22:46:54;21.10;1.00
19385;DHT22;9828;54.122;17.974;2023-07-09T22:52:16;21.00;99.90
19385;DHT22;9828;54.122;17.974;2023-07-09T22:57:39;21.00;99.90
19385;DHT22;9828;54.122;17.974;2023-07-09T23:03:05;20.90;99.90
19385;DHT22;9828;54.122;17.974;2023-07-09T23:30:17;20.50;99.90
